Time;durP1;ratioP1;P1;durP2;ratioP2;P2;SDS_P1;SDS_P2;PMS_P1;PMS_P2;Temp;Humidity;BMP_temperature;BMP_pressure;BME280_temperature;BME280_humidity;BME280_pressure;Samples;Min_cycle;Max_cycle;Signal;HPM_P1;HPM_P2
2022/03/25 00:00:40;;;;;;;185.63;164.55;;;;;;;16.34;28.54;94505.16;5116588;27;20031;-62
2022/03/25 00:03:08;;;;;;;191.65;169.98;;;;;;;16.35;28.46;94508.63;5106923;27;20538;-61
2022/03/25 00:05:34;;;;;;;191.50;170.32;;;;;;;16.34;28.50;94507.09;5110708;27;20076;-61
2022/03/25 00:07:59;;;;;;;187.55;166.40;;;;;;;16.33;28.39;94508.28;5110884;27;20512;-62
2022/03/25 00:10:25;;;;;;;190.48;168.40;;;;;;;16.33;28.32;94505.59;5116662;27;20502;-62
2022/03/25 00:12:51;;;;;;;191.77;170.60;;;;;;;16.32;28.42;94507.53;5110606;27;20368;-62
2022/03/25 00:15:18;;;;;;;191.20;169.82;;;;;;;16.31;28.48;94503.31;5115269;27;20071;-61
2022/03/25 00:17:44;;;;;;;187.93;165.25;;;;;;;16.32;28.32;94501.38;5112246;27;20433;-62
2022/03/25 00:20:10;;;;;;;191.05;169.80;;;;;;;16.32;28.42;94504.09;5107427;27;20051;-62
2022/03/25 00:22:35;;;;;;;191.18;169.75;;;;;;;16.30;28.48;94501.81;5108865;27;20043;-62
2022/03/25 00:25:05;;;;;;;187.55;165.80;;;;;;;16.30;28.39;94501.81;5110234;28;20556;-62
2022/03/25 00:27:35;;;;;;;187.82;165.25;;;;;;;16.30;28.72;94501.06;5112901;27;20130;-62
2022/03/25 00:30:01;;;;;;;;;;;;;;;16.30;28.39;94503.75;5119659;27;20055;-62
2022/03/25 00:32:26;;;;;;;187.25;162.35;;;;;;;16.28;28.48;94500.72;5116887;27;19924;-62
2022/03/25 00:34:52;;;;;;;188.10;165.00;;;;;;;16.28;28.41;94504.19;5114797;27;20062;-62
2022/03/25 00:37:18;;;;;;;191.68;169.43;;;;;;;16.29;28.39;94496.84;5112873;27;20099;-61
2022/03/25 00:39:44;;;;;;;188.65;166.80;;;;;;;16.28;28.43;94506.88;5110972;27;20527;-61
2022/03/25 00:42:12;;;;;;;188.45;166.52;;;;;;;16.27;28.54;94505.38;5116890;27;20118;-61
2022/03/25 00:44:38;;;;;;;189.52;164.57;;;;;;;16.26;28.46;94503.84;5117002;27;20452;-62
2022/03/25 00:47:04;;;;;;;190.68;166.98;;;;;;;16.26;28.36;94506.56;5109565;27;20047;-62
2022/03/25 00:49:30;;;;;;;189.77;167.00;;;;;;;16.26;28.50;94506.56;5110346;27;20483;-62
2022/03/25 00:51:56;;;;;;;190.82;169.07;;;;;;;16.25;28.48;94505.03;5113244;27;20043;-62
2022/03/25 00:58:03;;;;;;;184.77;159.45;;;;;;;16.24;28.33;94500.88;5117240;27;20329;-62
2022/03/25 01:00:29;;;;;;;190.48;166.52;;;;;;;16.25;28.41;94501.63;5122243;27;20043;-61
2022/03/25 01:02:54;;;;;;;183.50;163.00;;;;;;;16.24;28.43;94497.41;5121317;27;20049;-61
2022/03/25 01:05:20;;;;;;;186.82;164.50;;;;;;;16.23;28.31;94502.03;5116802;27;20418;-62
2022/03/25 01:07:46;;;;;;;188.77;166.60;;;;;;;16.23;28.29;94493.94;5116287;27;20059;-62
2022/03/25 01:10:13;;;;;;;190.35;167.52;;;;;;;16.22;28.37;94491.69;5110493;27;20109;-62
2022/03/25 01:12:38;;;;;;;189.05;166.35;;;;;;;16.24;28.43;94494.72;5115685;27;20107;-62
2022/03/25 01:15:04;;;;;;;186.30;165.48;;;;;;;16.24;28.54;94489.31;5114046;27;20040;-61
2022/03/25 01:17:30;;;;;;;189.30;166.98;;;;;;;16.24;28.36;94486.63;5120237;27;20055;-62
2022/03/25 01:19:55;;;;;;;190.00;168.52;;;;;;;16.23;28.89;94499.34;5114193;27;20043;-61
2022/03/25 01:22:21;;;;;;;192.02;169.27;;;;;;;16.22;28.42;94487.03;5114114;27;20066;-61
2022/03/25 01:24:48;;;;;;;187.68;165.88;;;;;;;16.22;28.38;94489.75;5116985;27;20051;-62
2022/03/25 01:27:14;;;;;;;190.48;168.25;;;;;;;16.22;28.50;94481.66;5117601;27;20847;-62
2022/03/25 01:29:40;;;;;;;190.68;167.63;;;;;;;16.21;28.48;94482.06;5117742;27;20063;-62
2022/03/25 01:32:10;;;;;;;184.82;164.30;;;;;;;16.22;28.54;94481.66;5119958;27;20047;-62
2022/03/25 01:34:37;;;;;;;189.35;166.10;;;;;;;16.22;28.47;94487.03;5105652;27;20039;-61
2022/03/25 01:37:03;;;;;;;188.95;166.80;;;;;;;16.21;28.41;94484.78;5112134;27;20097;-62
2022/03/25 01:39:28;;;;;;;196.48;173.20;;;;;;;16.20;28.37;94481.31;5111558;27;20111;-61
2022/03/25 01:41:55;;;;;;;189.30;166.82;;;;;;;16.21;28.50;94485.53;5114932;27;20055;-61
2022/03/25 01:44:25;;;;;;;194.45;171.20;;;;;;;16.21;28.43;94484.78;5108481;27;20066;-61
2022/03/25 01:46:55;;;;;;;190.18;165.82;;;;;;;16.19;28.45;94479.81;5113105;27;20506;-62
2022/03/25 01:49:22;;;;;;;188.48;167.23;;;;;;;16.21;28.51;94490.94;5109217;27;20047;-61
2022/03/25 01:51:50;;;;;;;192.32;169.52;;;;;;;16.20;28.42;94484.00;5115866;27;20237;-62
2022/03/25 01:54:21;;;;;;;192.68;168.45;;;;;;;16.20;28.41;94492.13;5119023;27;20043;-62
2022/03/25 01:57:00;;;;;;;190.07;168.27;;;;;;;16.20;28.65;94489.41;5109100;27;20051;-61
2022/03/25 01:59:27;;;;;;;189.45;167.32;;;;;;;16.18;28.36;94486.38;5119430;27;20081;-61
2022/03/25 02:01:55;;;;;;;186.20;164.05;;;;;;;16.18;28.37;94485.63;5112458;27;20035;-62
2022/03/25 02:04:22;;;;;;;194.48;170.13;;;;;;;16.17;28.63;94487.56;5109868;27;20436;-62
2022/03/25 02:06:47;;;;;;;189.93;167.93;;;;;;;16.18;28.43;94488.34;5114913;27;20071;-61
2022/03/25 02:09:13;;;;;;;190.73;167.15;;;;;;;16.18;28.54;94489.09;5111751;27;20401;-62
2022/03/25 02:11:39;;;;;;;192.75;169.63;;;;;;;16.16;28.60;94486.06;5110674;27;20038;-62
2022/03/25 02:14:05;;;;;;;188.18;165.60;;;;;;;16.13;28.63;94476.88;5115278;27;20043;-61
2022/03/25 02:16:49;;;;;;;192.07;170.13;;;;;;;16.14;28.45;94478.41;5115975;27;20072;-62
2022/03/25 02:19:19;;;;;;;191.43;167.75;;;;;;;16.16;28.62;94483.38;5111334;27;20089;-61
2022/03/25 02:21:48;;;;;;;;;;;;;;;16.16;28.45;94475.28;5112343;27;20560;-61
2022/03/25 02:24:14;;;;;;;187.75;159.63;;;;;;;16.16;28.56;94479.91;5115919;27;20019;-61
2022/03/25 02:26:41;;;;;;;189.73;163.30;;;;;;;16.15;28.64;94481.84;5120628;27;20043;-62
2022/03/25 02:29:10;;;;;;;191.57;164.65;;;;;;;16.14;28.58;94480.34;5114417;27;20046;-62
2022/03/25 02:31:35;;;;;;;190.75;166.25;;;;;;;16.13;28.54;94476.13;5112594;27;20039;-61
2022/03/25 02:34:04;;;;;;;185.45;162.35;;;;;;;16.13;28.70;94474.19;5120701;27;20088;-62
2022/03/25 02:36:36;;;;;;;189.30;166.20;;;;;;;16.12;28.54;94475.38;5114306;27;20515;-61
2022/03/25 02:39:03;;;;;;;191.20;167.75;;;;;;;16.12;28.41;94469.97;5113720;27;20115;-62
2022/03/25 02:41:28;;;;;;;190.57;167.18;;;;;;;16.12;28.47;94471.91;5108170;27;20511;-62
2022/03/25 02:43:54;;;;;;;188.40;165.10;;;;;;;16.12;28.59;94474.63;5116215;27;20153;-62
2022/03/25 02:46:19;;;;;;;188.68;165.77;;;;;;;16.11;28.61;94470.41;5117615;27;20161;-62
2022/03/25 02:48:45;;;;;;;190.15;169.00;;;;;;;16.11;28.61;94475.81;5116374;27;20108;-62
2022/03/25 02:51:11;;;;;;;189.85;166.63;;;;;;;16.11;28.66;94470.41;5118525;27;20411;-62
2022/03/25 02:53:36;;;;;;;195.32;171.88;;;;;;;16.11;28.68;94476.56;5118873;27;20116;-61
2022/03/25 02:56:02;;;;;;;189.10;162.88;;;;;;;16.11;28.55;94473.09;5108015;27;20074;-62
2022/03/25 02:58:28;;;;;;;194.13;169.85;;;;;;;16.10;28.67;94466.94;5121730;27;20504;-61
2022/03/25 03:00:53;;;;;;;187.80;164.55;;;;;;;16.09;28.52;94468.13;5116357;27;20826;-62
2022/03/25 03:03:19;;;;;;;188.30;165.82;;;;;;;16.09;28.54;94465.44;5111293;27;20054;-61
2022/03/25 03:05:44;;;;;;;189.43;166.02;;;;;;;16.10;28.61;94469.66;5118274;27;20070;-62
2022/03/25 03:08:12;;;;;;;188.70;165.65;;;;;;;16.10;28.68;94472.34;5123313;27;20054;-61
2022/03/25 03:10:38;;;;;;;187.38;164.07;;;;;;;16.10;28.65;94466.94;5117308;27;20100;-62
2022/03/25 03:13:04;;;;;;;190.73;168.13;;;;;;;16.11;28.62;94473.84;5110536;27;20694;-61
2022/03/25 03:15:29;;;;;;;191.02;166.57;;;;;;;16.11;28.65;94467.69;5111197;27;20047;-62
2022/03/25 03:17:55;;;;;;;195.02;169.52;;;;;;;16.11;28.54;94475.81;5117590;27;20388;-61
2022/03/25 03:20:21;;;;;;;190.63;166.40;;;;;;;16.11;28.49;94473.09;5123931;27;20055;-61
2022/03/25 03:22:48;;;;;;;187.98;163.07;;;;;;;16.11;28.63;94465.00;5108720;27;20387;-61
2022/03/25 03:25:13;;;;;;;189.18;164.75;;;;;;;16.10;28.59;94466.19;5112191;27;20581;-62
2022/03/25 03:27:40;;;;;;;192.80;169.77;;;;;;;16.09;28.73;94457.34;5110649;27;20039;-61
2022/03/25 03:30:08;;;;;;;191.35;166.73;;;;;;;16.10;28.74;94458.09;5113791;27;20043;-62
2022/03/25 03:32:35;;;;;;;190.73;165.35;;;;;;;16.09;28.62;94454.66;5111137;27;20487;-62
2022/03/25 03:35:01;;;;;;;188.38;166.35;;;;;;;16.10;28.56;94450.00;5121904;27;20046;-62
2022/03/25 03:37:26;;;;;;;191.48;168.02;;;;;;;16.10;28.68;94450.75;5110437;27;20036;-62
2022/03/25 03:39:52;;;;;;;188.32;164.30;;;;;;;16.08;28.67;94452.38;5114880;27;20071;-62
2022/03/25 03:42:18;;;;;;;191.75;168.75;;;;;;;16.09;28.66;94456.59;5121452;27;20105;-62
2022/03/25 03:44:43;;;;;;;187.32;164.60;;;;;;;16.08;28.59;94453.13;5107428;27;20036;-62
2022/03/25 03:47:10;;;;;;;185.07;163.95;;;;;;;16.08;28.78;94458.53;5106609;28;20043;-61
2022/03/25 03:49:36;;;;;;;192.15;166.95;;;;;;;16.07;28.50;94461.66;5110020;27;20047;-61
2022/03/25 03:52:04;;;;;;;188.40;165.18;;;;;;;16.08;28.76;94449.69;5122141;27;20517;-62
2022/03/25 03:54:32;;;;;;;191.23;166.38;;;;;;;16.08;28.84;94455.06;5110093;27;20060;-61
2022/03/25 03:56:58;;;;;;;187.88;166.63;;;;;;;16.07;28.68;94458.97;5106575;27;20047;-62
2022/03/25 03:59:23;;;;;;;190.10;167.25;;;;;;;16.07;28.73;94459.72;5118562;27;20058;-62
2022/03/25 04:01:49;;;;;;;190.00;167.70;;;;;;;16.06;28.55;94462.84;5113425;27;20043;-62
2022/03/25 04:04:15;;;;;;;183.30;161.48;;;;;;;16.06;28.73;94457.44;5119526;27;20043;-61
2022/03/25 04:06:40;;;;;;;192.38;169.90;;;;;;;16.05;28.74;94451.28;5121051;27;20671;-62
2022/03/25 04:09:06;;;;;;;188.25;165.75;;;;;;;16.06;28.66;94457.44;5116352;27;20058;-62
2022/03/25 04:11:31;;;;;;;192.13;168.65;;;;;;;16.05;28.70;94454.00;5106360;28;20067;-61
2022/03/25 04:13:57;;;;;;;185.70;162.70;;;;;;;16.04;28.73;94457.88;5115437;27;20059;-61
2022/03/25 04:16:23;;;;;;;192.43;168.80;;;;;;;16.05;28.69;94458.63;5111300;27;20074;-62
2022/03/25 04:18:48;;;;;;;190.27;167.00;;;;;;;16.03;28.49;94453.66;5122249;27;20079;-62
2022/03/25 04:21:15;;;;;;;188.82;165.52;;;;;;;16.02;28.76;94454.84;5111147;27;20043;-61
2022/03/25 04:23:40;;;;;;;207.70;179.73;;;;;;;16.02;28.77;94460.25;5116014;27;20066;-62
2022/03/25 04:26:06;;;;;;;186.55;164.55;;;;;;;16.03;28.71;94461.00;5108516;27;20484;-61
2022/03/25 04:28:32;;;;;;;194.10;170.05;;;;;;;16.01;28.52;94453.34;5107787;27;20047;-62
2022/03/25 04:30:58;;;;;;;184.30;162.70;;;;;;;16.00;28.73;94446.44;5108484;27;20093;-61
2022/03/25 04:33:24;;;;;;;187.77;163.45;;;;;;;16.00;28.70;94462.63;5123362;27;20119;-62
2022/03/25 04:35:49;;;;;;;189.95;166.45;;;;;;;16.00;28.78;94457.22;5119318;27;20058;-62
2022/03/25 04:38:15;;;;;;;199.35;173.48;;;;;;;15.99;28.56;94447.63;5117018;27;20036;-61
2022/03/25 04:40:41;;;;;;;191.43;167.02;;;;;;;16.00;28.69;94446.44;5120540;27;20050;-62
2022/03/25 04:43:07;;;;;;;188.98;165.77;;;;;;;15.99;28.56;94455.72;5121329;27;20398;-62
2022/03/25 04:45:33;;;;;;;184.90;163.25;;;;;;;16.00;28.78;94448.38;5117698;27;20115;-62
2022/03/25 04:47:59;;;;;;;199.75;174.23;;;;;;;15.99;28.52;94450.31;5115956;27;20069;-61
2022/03/25 04:50:24;;;;;;;192.15;168.02;;;;;;;16.00;28.72;94445.66;5117083;27;20047;-61
2022/03/25 04:52:51;;;;;;;191.90;168.82;;;;;;;15.99;28.80;94447.63;5124776;27;20541;-62
2022/03/25 04:55:18;;;;;;;191.85;166.93;;;;;;;16.00;28.75;94453.75;5113859;27;20124;-61
2022/03/25 04:57:44;;;;;;;182.68;161.48;;;;;;;16.00;28.52;94462.63;5120876;27;20083;-62
2022/03/25 05:00:10;;;;;;;200.25;172.80;;;;;;;16.00;28.65;94457.22;5121231;27;20480;-62
2022/03/25 05:02:37;;;;;;;188.40;166.25;;;;;;;16.01;28.58;94455.28;5115475;27;20058;-62
2022/03/25 05:05:03;;;;;;;185.23;162.50;;;;;;;16.01;28.77;94461.44;5113598;27;20091;-62
2022/03/25 05:07:29;;;;;;;189.57;166.10;;;;;;;16.03;28.48;94461.00;5118267;27;20037;-61
2022/03/25 05:09:59;;;;;;;188.73;164.13;;;;;;;16.03;28.75;94459.06;5117340;27;20044;-61
2022/03/25 05:12:26;;;;;;;185.95;163.27;;;;;;;16.04;28.57;94454.41;5122855;27;20672;-60
2022/03/25 05:14:52;;;;;;;191.73;168.32;;;;;;;16.05;28.60;94459.38;5117906;27;20062;-60
2022/03/25 05:17:17;;;;;;;192.07;168.15;;;;;;;16.07;28.51;94459.72;5121662;27;22261;-62
2022/03/25 05:19:43;;;;;;;185.10;163.07;;;;;;;16.07;28.73;94464.34;5116183;27;20041;-61
2022/03/25 05:22:09;;;;;;;187.07;164.43;;;;;;;16.09;28.60;94467.38;5122281;27;20039;-61
2022/03/25 05:24:34;;;;;;;188.27;164.75;;;;;;;16.09;28.75;94465.44;5118370;27;20059;-59
2022/03/25 05:27:00;;;;;;;189.75;166.43;;;;;;;16.10;28.48;94463.50;5113997;27;20561;-62
2022/03/25 05:29:26;;;;;;;187.82;164.93;;;;;;;16.12;28.53;94469.22;5123757;27;20058;-62
2022/03/25 05:31:52;;;;;;;188.43;163.80;;;;;;;16.12;28.59;94469.22;5121034;27;20048;-62
2022/03/25 05:34:17;;;;;;;200.32;174.02;;;;;;;16.13;28.57;94470.72;5108143;27;20218;-61
2022/03/25 05:36:43;;;;;;;188.10;166.52;;;;;;;16.15;28.57;94471.06;5121423;27;20070;-61
2022/03/25 05:39:09;;;;;;;188.70;165.68;;;;;;;16.13;28.41;94468.03;5122198;27;20134;-61
2022/03/25 05:41:34;;;;;;;188.82;166.90;;;;;;;16.16;28.83;94471.81;5118501;27;20103;-62
2022/03/25 05:44:00;;;;;;;188.45;166.63;;;;;;;16.16;28.37;94471.81;5111381;27;20568;-61
2022/03/25 05:46:26;;;;;;;192.18;167.25;;;;;;;16.18;28.49;94478.28;5118045;27;20102;-62
2022/03/25 05:48:51;;;;;;;188.50;167.25;;;;;;;16.19;28.40;94481.75;5113670;27;20139;-61
2022/03/25 05:51:17;;;;;;;186.45;163.48;;;;;;;16.19;28.60;94485.19;5119334;27;20467;-61
2022/03/25 05:53:43;;;;;;;199.77;176.32;;;;;;;16.19;28.55;94490.59;5114978;27;20043;-62
2022/03/25 05:56:10;;;;;;;200.18;176.00;;;;;;;16.20;28.49;94491.34;5118435;27;20403;-62
2022/03/25 05:58:36;;;;;;;193.45;172.23;;;;;;;16.20;28.89;94488.66;5137660;27;20115;-61
2022/03/25 06:01:04;;;;;;;189.68;166.65;;;;;;;16.21;28.50;94490.16;5119058;27;20603;-62
2022/03/25 06:03:33;;;;;;;191.35;170.20;;;;;;;16.20;28.33;94486.72;5111426;27;20081;-61
2022/03/25 06:06:01;;;;;;;188.30;166.68;;;;;;;16.23;28.44;94491.25;5116436;27;20737;-61
2022/03/25 06:08:26;;;;;;;187.52;165.77;;;;;;;16.23;28.58;94493.19;5116603;27;20059;-61
2022/03/25 06:10:52;;;;;;;190.93;167.68;;;;;;;16.23;28.50;94495.91;5109233;28;20070;-61
2022/03/25 06:13:18;;;;;;;192.77;171.02;;;;;;;16.23;28.62;94495.91;5107848;27;20075;-62
2022/03/25 06:15:44;;;;;;;187.82;167.10;;;;;;;16.23;28.67;94493.94;5128091;27;20470;-61
2022/03/25 06:18:10;;;;;;;190.35;167.85;;;;;;;16.23;28.58;94485.09;5112056;27;20044;-62
2022/03/25 06:20:35;;;;;;;186.27;164.95;;;;;;;16.24;28.48;94490.06;5115462;27;20042;-62
2022/03/25 06:23:01;;;;;;;194.02;171.38;;;;;;;16.24;28.49;94500.09;5115695;27;20788;-62
2022/03/25 06:25:27;;;;;;;185.63;163.48;;;;;;;16.25;28.36;94486.16;5128213;27;20107;-61
2022/03/25 06:27:58;;;;;;;190.13;166.82;;;;;;;16.25;28.61;94490.81;5124581;27;20043;-62
2022/03/25 06:30:27;;;;;;;190.23;164.93;;;;;;;16.24;28.55;94487.38;5123639;27;20039;-61
2022/03/25 06:32:54;;;;;;;186.50;165.65;;;;;;;16.25;28.70;94488.84;5116459;27;20070;-61
2022/03/25 06:35:21;;;;;;;193.00;170.57;;;;;;;16.25;28.63;94488.13;5107451;27;20070;-61
2022/03/25 06:37:47;;;;;;;191.23;168.75;;;;;;;16.25;28.89;94493.53;5124423;27;20122;-61
2022/03/25 06:40:13;;;;;;;189.48;168.32;;;;;;;16.25;28.66;94493.53;5126155;27;20047;-61
2022/03/25 06:42:42;;;;;;;188.85;167.10;;;;;;;16.25;28.54;94486.16;5119515;27;20047;-62
2022/03/25 06:45:10;;;;;;;186.73;165.27;;;;;;;16.26;28.61;94493.06;5112125;27;20078;-63
2022/03/25 06:47:37;;;;;;;190.55;167.48;;;;;;;16.27;28.62;94499.22;5120549;27;20047;-63
2022/03/25 06:50:04;;;;;;;189.20;166.75;;;;;;;16.27;28.68;94494.56;5119234;27;20079;-63
2022/03/25 06:52:30;;;;;;;202.50;179.18;;;;;;;16.27;28.62;94488.41;5116889;27;20600;-63
2022/03/25 06:54:56;;;;;;;187.68;166.35;;;;;;;16.27;28.72;94493.81;5114811;27;20039;-64
2022/03/25 06:57:22;;;;;;;184.13;163.50;;;;;;;16.28;28.60;94490.69;5123762;27;20392;-64
2022/03/25 06:59:48;;;;;;;190.23;168.00;;;;;;;16.29;28.67;94503.00;5117468;27;20047;-64
2022/03/25 07:02:15;;;;;;;187.48;166.32;;;;;;;16.30;28.73;94493.72;5110710;27;20089;-64
2022/03/25 07:04:42;;;;;;;190.75;168.95;;;;;;;16.31;28.83;94500.63;5114302;27;20054;-63
2022/03/25 07:07:08;;;;;;;190.85;169.13;;;;;;;16.31;28.80;94495.22;5106773;27;20067;-61
2022/03/25 07:09:35;;;;;;;189.50;168.60;;;;;;;16.32;28.71;94502.13;5119950;27;20054;-61
2022/03/25 07:12:02;;;;;;;191.35;168.40;;;;;;;16.33;28.80;94497.50;5121805;27;20051;-61
2022/03/25 07:14:27;;;;;;;191.38;168.18;;;;;;;16.33;28.71;94497.50;5114826;27;20154;-60
2022/03/25 07:16:53;;;;;;;186.98;164.38;;;;;;;16.32;28.83;94493.28;5116788;27;20494;-62
2022/03/25 07:19:19;;;;;;;190.18;168.30;;;;;;;16.33;28.58;94494.81;5115574;27;20057;-61
2022/03/25 07:21:45;;;;;;;192.25;171.00;;;;;;;16.33;29.00;94498.25;5125117;27;20042;-61
2022/03/25 07:24:13;;;;;;;189.50;167.20;;;;;;;16.34;28.79;94502.47;5109890;27;20506;-61
2022/03/25 07:26:39;;;;;;;211.45;184.50;;;;;;;16.34;28.79;94499.78;5104836;27;20499;-61
2022/03/25 07:29:04;;;;;;;200.60;175.68;;;;;;;16.34;28.90;94499.00;5117355;27;20088;-61
2022/03/25 07:31:32;;;;;;;196.43;173.73;;;;;;;16.34;28.95;94507.88;5108287;27;20110;-61
2022/03/25 07:34:00;;;;;;;187.82;165.13;;;;;;;16.34;29.05;94510.56;5106993;27;20518;-61
2022/03/25 07:36:26;;;;;;;195.55;171.52;;;;;;;16.35;29.04;94512.06;5112045;27;20052;-61
2022/03/25 07:38:51;;;;;;;191.23;168.65;;;;;;;16.34;28.92;94507.88;5108277;27;20479;-61
2022/03/25 07:41:17;;;;;;;191.20;169.20;;;;;;;16.35;29.03;94503.22;5114504;27;20101;-61
2022/03/25 07:43:43;;;;;;;202.90;177.15;;;;;;;16.35;28.96;94506.69;5109098;27;20039;-61
2022/03/25 07:46:09;;;;;;;188.10;167.40;;;;;;;16.36;29.02;94502.03;5118750;27;20067;-61
2022/03/25 07:48:34;;;;;;;191.80;170.68;;;;;;;16.35;28.99;94506.69;5123713;27;20054;-61
2022/03/25 07:51:00;;;;;;;187.55;166.73;;;;;;;16.36;28.96;94510.88;5112880;27;20035;-61
2022/03/25 07:53:25;;;;;;;201.10;178.75;;;;;;;16.35;28.83;94512.06;5116410;27;20039;-62
2022/03/25 07:55:51;;;;;;;191.88;170.73;;;;;;;16.36;29.05;94507.44;5112473;27;20047;-61
2022/03/25 07:58:21;;;;;;;187.63;166.50;;;;;;;16.34;29.29;94501.72;5118122;27;20047;-63
2022/03/25 08:00:47;;;;;;;189.15;167.77;;;;;;;16.36;28.95;94505.50;5117378;27;20040;-60
2022/03/25 08:03:13;;;;;;;192.32;170.65;;;;;;;16.36;28.99;94510.13;5110209;28;20038;-61
2022/03/25 08:05:39;;;;;;;189.18;168.05;;;;;;;16.36;29.11;94504.72;5125727;27;20570;-61
2022/03/25 08:08:05;;;;;;;190.00;169.05;;;;;;;16.37;28.86;94506.25;5119753;27;20039;-60
2022/03/25 08:10:31;;;;;;;189.05;168.05;;;;;;;16.37;29.10;94503.56;5112574;28;20526;-60
2022/03/25 08:12:58;;;;;;;187.50;166.07;;;;;;;16.36;29.06;94502.78;5115980;27;20035;-61
2022/03/25 08:15:27;;;;;;;195.68;173.07;;;;;;;16.36;29.17;94510.88;5115191;27;20043;-60
2022/03/25 08:17:58;;;;;;;187.15;166.02;;;;;;;16.37;29.11;94509.69;5124001;27;20044;-60
2022/03/25 08:20:26;;;;;;;192.73;171.38;;;;;;;16.38;29.20;94508.53;5126806;27;20706;-60
2022/03/25 08:22:53;;;;;;;188.20;165.43;;;;;;;16.37;29.18;94503.56;5122842;27;20062;-61
2022/03/25 08:28:03;;;;;;;186.10;165.43;;;;;;;16.37;29.11;94512.41;5115531;27;20151;-61
2022/03/25 08:30:30;;;;;;;197.00;174.90;;;;;;;16.37;29.11;94509.69;5114421;27;20054;-61
2022/03/25 08:32:57;;;;;;;183.73;162.90;;;;;;;16.36;29.23;94512.84;5120216;27;20039;-61
2022/03/25 08:35:27;;;;;;;199.10;174.50;;;;;;;16.36;29.11;94516.28;5114455;27;20039;-62
2022/03/25 08:37:54;;;;;;;192.20;170.43;;;;;;;16.37;29.08;94517.81;5126158;27;20043;-61
2022/03/25 08:40:21;;;;;;;183.57;163.27;;;;;;;16.37;29.11;94514.34;5124593;27;20963;-61
2022/03/25 08:42:47;;;;;;;196.23;172.65;;;;;;;16.35;29.13;94517.47;5123466;27;20605;-61
2022/03/25 08:45:15;;;;;;;187.30;165.80;;;;;;;16.37;29.18;94512.41;5123492;27;20104;-61
2022/03/25 08:47:41;;;;;;;210.38;185.07;;;;;;;16.36;29.16;94516.28;5121476;27;20054;-61
2022/03/25 08:50:09;;;;;;;194.65;173.18;;;;;;;16.37;29.16;94515.09;5129687;27;20132;-61
2022/03/25 08:52:36;;;;;;;189.75;168.88;;;;;;;16.35;29.23;94519.41;5120515;27;20052;-62
2022/03/25 08:55:02;;;;;;;189.57;168.73;;;;;;;16.33;29.18;94519.09;5122415;27;20039;-61
2022/03/25 08:57:28;;;;;;;189.63;168.77;;;;;;;16.30;29.10;94520.72;5119749;27;20040;-61
2022/03/25 08:59:53;;;;;;;189.68;168.80;;;;;;;16.29;29.13;94510.34;5126509;27;20035;-62
2022/03/25 09:02:19;;;;;;;193.70;171.88;;;;;;;16.26;29.00;94520.06;5130734;27;20882;-61
2022/03/25 09:04:46;;;;;;;184.98;164.57;;;;;;;16.26;29.20;94511.19;5133582;27;20043;-61
2022/03/25 09:07:12;;;;;;;197.77;175.57;;;;;;;16.28;29.06;94514.22;5123352;27;20050;-61
2022/03/25 09:09:38;;;;;;;189.93;168.85;;;;;;;16.31;29.04;94508.72;5115862;27;20090;-61
2022/03/25 09:12:04;;;;;;;189.63;168.27;;;;;;;16.28;29.11;94512.28;5128691;27;20122;-62
2022/03/25 09:14:30;;;;;;;189.95;166.82;;;;;;;16.30;29.26;94509.91;5114957;27;20050;-62
2022/03/25 09:16:55;;;;;;;188.63;167.23;;;;;;;16.27;28.99;94515.41;5124189;27;20360;-62
2022/03/25 09:19:21;;;;;;;192.38;170.57;;;;;;;16.29;29.02;94508.41;5118387;27;20043;-62
2022/03/25 09:21:46;;;;;;;192.82;169.98;;;;;;;16.30;28.90;94515.31;5116688;27;20466;-61
2022/03/25 09:24:12;;;;;;;196.10;173.68;;;;;;;16.31;29.08;94513.38;5125331;27;20112;-61
2022/03/25 09:26:38;;;;;;;190.02;169.00;;;;;;;16.31;28.94;94514.13;5122508;27;20062;-62
2022/03/25 09:29:04;;;;;;;193.45;170.40;;;;;;;16.30;29.07;94512.59;5121919;27;20503;-61
2022/03/25 09:31:30;;;;;;;190.98;168.35;;;;;;;16.30;28.91;94512.59;5112395;27;20058;-62
2022/03/25 09:35:08;;;;;;;194.75;172.90;;;;;;;16.28;28.95;94508.81;5114418;27;20051;-62
2022/03/25 09:36:41;;;;;;;191.38;168.65;;;;;;;16.29;28.92;94513.78;5118014;27;20747;-61
2022/03/25 09:39:07;;;;;;;188.65;166.35;;;;;;;16.30;29.14;94511.84;5112200;27;20063;-61
2022/03/25 09:41:32;;;;;;;189.40;168.23;;;;;;;16.29;28.58;94508.41;5123825;27;20035;-61
2022/03/25 09:43:58;;;;;;;190.95;169.55;;;;;;;16.27;28.86;94505.38;5115544;27;20075;-61
2022/03/25 09:46:25;;;;;;;195.68;172.20;;;;;;;16.26;28.76;94505.81;5113952;27;20430;-61
2022/03/25 09:48:50;;;;;;;196.13;174.50;;;;;;;16.27;28.87;94501.91;5121459;27;20074;-61
2022/03/25 09:51:16;;;;;;;190.48;168.52;;;;;;;16.31;28.91;94503.31;5121273;27;20737;-62
2022/03/25 09:53:41;;;;;;;211.73;183.63;;;;;;;16.32;28.81;94506.78;5126975;27;20039;-61
2022/03/25 09:56:07;;;;;;;190.82;169.40;;;;;;;16.31;28.79;94495.22;5117393;27;20510;-61
2022/03/25 09:58:33;;;;;;;189.15;167.30;;;;;;;16.34;28.98;94499.78;5122366;27;20090;-61
2022/03/25 10:00:59;;;;;;;188.35;167.63;;;;;;;16.34;28.97;94499.00;5128176;27;20134;-62
2022/03/25 10:03:36;;;;;;;188.13;166.13;;;;;;;16.34;28.95;94499.00;5124897;27;20055;-61
2022/03/25 10:06:04;;;;;;;201.52;175.93;;;;;;;16.31;28.85;94497.94;5109892;27;20046;-61
2022/03/25 10:08:31;;;;;;;192.98;169.43;;;;;;;16.31;28.81;94500.63;5123442;27;20118;-61
2022/03/25 10:11:20;;;;;;;195.80;172.55;;;;;;;16.26;28.68;94498.47;5121626;27;20046;-60
2022/03/25 10:13:46;;;;;;;212.98;182.68;;;;;;;16.32;28.80;94496.00;5105110;27;20042;-64
2022/03/25 10:16:31;;;;;;;196.05;170.85;;;;;;;16.34;28.65;94485.50;5112119;27;20444;-61
2022/03/25 10:18:58;;;;;;;188.27;165.27;;;;;;;16.34;28.70;94493.63;5121419;27;20114;-61
2022/03/25 10:21:24;;;;;;;191.27;169.88;;;;;;;16.36;28.71;94486.59;5120991;27;20288;-61
2022/03/25 10:23:50;;;;;;;205.93;180.77;;;;;;;16.36;28.82;94483.91;5113358;27;20047;-61
2022/03/25 10:26:16;;;;;;;192.90;171.40;;;;;;;16.34;28.63;94488.22;5128051;27;20042;-60
2022/03/25 10:28:43;;;;;;;191.85;170.55;;;;;;;16.32;28.35;94483.25;5113543;27;20525;-61
2022/03/25 10:31:16;;;;;;;190.93;169.75;;;;;;;16.31;28.36;94481.72;5142623;27;20362;-61
2022/03/25 10:33:49;;;;;;;207.30;184.20;;;;;;;16.32;28.28;94480.56;5117241;27;20744;-60
2022/03/25 10:36:17;;;;;;;191.23;170.07;;;;;;;16.34;28.20;94488.22;5116829;27;20058;-61
2022/03/25 10:38:42;;;;;;;198.65;175.43;;;;;;;16.29;28.41;94481.41;5110394;27;20055;-61
2022/03/25 10:41:09;;;;;;;191.27;170.20;;;;;;;16.28;27.99;94477.19;5115293;27;20036;-61
2022/03/25 10:43:46;;;;;;;192.48;170.82;;;;;;;16.33;28.08;94482.06;5125218;27;20092;-59
2022/03/25 10:46:38;;;;;;;194.60;172.07;;;;;;;16.36;28.17;94478.50;5118777;27;20499;-61
2022/03/25 10:49:10;;;;;;;191.40;168.35;;;;;;;16.34;27.98;94480.13;5126498;27;20151;-61
2022/03/25 10:51:42;;;;;;;187.82;165.35;;;;;;;16.30;27.81;94474.81;5118015;27;20044;-61
2022/03/25 10:54:13;;;;;;;188.98;166.93;;;;;;;16.29;27.87;94472.56;5107620;28;20503;-61
2022/03/25 10:56:48;;;;;;;190.07;168.18;;;;;;;16.22;27.51;94476.25;5119483;27;20244;-61
2022/03/25 10:59:22;;;;;;;191.15;168.15;;;;;;;16.22;27.13;94476.25;5124680;27;20050;-60
2022/03/25 11:01:56;;;;;;;192.07;170.15;;;;;;;16.23;26.89;94477.00;5124805;27;20454;-61
2022/03/25 11:04:22;;;;;;;194.63;172.63;;;;;;;16.20;27.01;94473.22;5118992;27;20054;-61
2022/03/25 11:06:49;;;;;;;193.73;172.15;;;;;;;16.24;26.74;94471.19;5123292;27;20039;-61